aviador You're here:

KLIC Decoded Metar

LIMON in CO, USA
Report Time2017-08-22 21:55:00
UTC Time2017-08-22 22:24:46
Flight Rules vfr VFR
Wind160° at 17 Gusting to 23 kt
W.Decomp.*RWY 16: 16.7 kt HW 3.2 kt LCW
W.Rank160° ranks 5
Current wind is above 160° avg. (9.7)
Visibility9999 m
Phenomena:N/A
Clouds:N/A
Expected CloudBase > 4,400 ft AGL from Temp-Dew spread
CeilingNone
Temp24°C (ISA +20)
Dew Point13°C (50% RH)
AAT18.8°C
QNH1026 hPa
Density Alt7,375 ft
Elevation5,348 ft
Report Wrong Elevation
Raw Report
METAR KLIC 222155Z AUTO 16017G23KT 10SM CLR 24/13 A3031 RMK AO2 SLP193
T02440133=

Extra information for KLIC:More info

Metar Taf Metar & Taf Last 4 Metars F.Rules Stats Wind Profile Meteogram Temp Stats Airport Information Weather charts Add Link Nearby VenuesMetar ALERT Operation Metar Decoded Social comments

AIRNAV info for KLIC